Time;durP1;ratioP1;P1;durP2;ratioP2;P2;SDS_P1;SDS_P2;PMS_P1;PMS_P2;Temp;Humidity;BMP_temperature;BMP_pressure;BME280_temperature;BME280_humidity;BME280_pressure;Samples;Min_cycle;Max_cycle;Signal;HPM_P1;HPM_P2
2022/12/10 00:00:23;;;;;;;;;22.25;19.00;;;;;9.61;72.44;99440.63;5041280;28;46218;-79
2022/12/10 00:02:48;;;;;;;;;21.00;18.50;;;;;9.61;71.98;99445.81;5043022;28;45443;-82
2022/12/10 00:05:14;;;;;;;;;21.25;18.00;;;;;9.55;71.07;99449.22;5039850;28;45523;-72
2022/12/10 00:07:39;;;;;;;;;18.50;17.50;;;;;9.43;71.27;99440.28;5045035;28;45773;-68
2022/12/10 00:10:05;;;;;;;;;24.00;22.50;;;;;9.33;70.37;99449.69;5042063;28;46066;-80
2022/12/10 00:12:31;;;;;;;;;25.25;19.50;;;;;9.32;70.90;99474.88;5039433;28;45625;-79
2022/12/10 00:14:56;;;;;;;;;21.75;19.75;;;;;9.32;71.40;99474.88;5042010;28;45499;-68
2022/12/10 00:17:22;;;;;;;;;20.00;15.75;;;;;9.26;70.79;99474.75;5040483;28;45458;-75
2022/12/10 00:19:47;;;;;;;;;18.75;17.25;;;;;9.23;70.49;99473.81;5038402;28;45730;-84
2022/12/10 00:22:13;;;;;;;;;20.25;18.25;;;;;9.17;70.27;99479.81;5039831;28;45564;-68
2022/12/10 00:24:38;;;;;;;;;19.50;18.00;;;;;9.08;69.40;99470.09;5040999;28;45448;-68
2022/12/10 00:27:04;;;;;;;;;19.25;16.50;;;;;9.01;69.85;99472.56;5038279;28;45858;-84
2022/12/10 00:29:29;;;;;;;;;20.50;19.00;;;;;8.87;69.64;99475.78;5041376;28;45846;-74
2022/12/10 00:31:55;;;;;;;;;19.25;17.25;;;;;8.88;70.36;99477.53;5039944;28;45866;-82
2022/12/10 00:34:20;;;;;;;;;22.75;20.00;;;;;8.88;70.20;99487.09;5044991;28;45542;-80
2022/12/10 00:36:48;;;;;;;;;18.50;15.75;;;;;8.66;69.98;99449.31;5038782;28;45622;-84
2022/12/10 00:39:20;;;;;;;;;20.50;18.00;;;;;8.83;69.79;99501.72;5041379;28;45885;-81
2022/12/10 00:41:46;;;;;;;;;20.75;20.00;;;;;8.82;69.81;99510.41;5040875;28;45382;-68
2022/12/10 00:44:12;;;;;;;;;24.50;17.00;;;;;8.76;69.71;99495.53;5037616;28;47101;-78
2022/12/10 00:46:39;;;;;;;;;18.50;18.00;;;;;8.65;69.96;99499.63;5041337;28;45501;-84
2022/12/10 00:49:05;;;;;;;;;21.75;19.25;;;;;8.50;69.24;99474.16;5039496;28;45626;-73
2022/12/10 00:51:30;;;;;;;;;23.00;19.75;;;;;8.59;70.05;99502.97;5040851;28;45409;-74
2022/12/10 00:53:58;;;;;;;;;20.75;19.00;;;;;8.41;69.73;99473.91;5039984;28;45709;-83
2022/12/10 00:56:30;;;;;;;;;21.25;18.75;;;;;8.47;70.09;99500.97;5036191;28;45476;-76
2022/12/10 00:58:56;;;;;;;;;16.50;15.25;;;;;8.33;70.10;99473.75;5040710;28;45344;-84
2022/12/10 01:01:28;;;;;;;;;22.00;20.00;;;;;8.56;70.31;99514.19;5040793;28;45405;-79
2022/12/10 01:03:56;;;;;;;;;24.00;19.75;;;;;8.58;69.95;99526.38;5045725;28;45471;-78
2022/12/10 01:06:25;;;;;;;;;13.00;12.00;;;;;8.53;69.64;99526.25;5040279;28;45505;-72
2022/12/10 01:08:53;;;;;;;;;14.00;13.00;;;;;8.54;69.91;99523.72;5041807;28;46068;-70
2022/12/10 01:11:20;;;;;;;;;19.50;16.00;;;;;8.52;69.13;99535.81;5043203;28;45498;-84
2022/12/10 01:13:47;;;;;;;;;19.25;17.00;;;;;8.45;69.43;99544.31;5040466;28;45574;-72
2022/12/10 01:16:16;;;;;;;;;15.50;15.25;;;;;8.49;69.40;99547.88;5039267;28;45450;-76
2022/12/10 01:18:42;;;;;;;;;19.50;17.50;;;;;8.34;69.32;99524.97;5039273;28;45550;-72
2022/12/10 01:21:10;;;;;;;;;20.25;17.75;;;;;8.53;68.68;99553.19;5048887;28;45531;-80
2022/12/10 01:23:37;;;;;;;;;16.75;14.75;;;;;8.53;68.43;99544.50;5036923;28;46778;-80
2022/12/10 01:26:06;;;;;;;;;18.00;17.50;;;;;8.56;68.64;99558.47;5039111;28;45489;-69
2022/12/10 01:28:36;;;;;;;;;17.00;16.00;;;;;8.52;67.82;99561.84;5036653;28;45465;-77
2022/12/10 01:31:03;;;;;;;;;20.00;19.50;;;;;8.44;68.05;99568.59;5042202;28;45693;-67
2022/12/10 01:33:30;;;;;;;;;18.25;15.50;;;;;8.45;68.91;99574.69;5040893;28;45530;-83
2022/12/10 01:35:55;;;;;;;;;20.00;19.75;;;;;8.47;68.95;99579.06;5039352;28;45845;-78
2022/12/10 01:38:22;;;;;;;;;23.50;19.75;;;;;8.47;68.60;99578.19;5042987;28;45624;-68
2022/12/10 01:40:47;;;;;;;;;20.75;18.50;;;;;8.25;68.82;99553.38;5035937;28;45366;-82
2022/12/10 01:43:14;;;;;;;;;20.00;16.75;;;;;8.16;69.00;99549.72;5040734;28;45561;-75
2022/12/10 01:45:40;;;;;;;;;20.75;18.75;;;;;8.41;68.25;99594.53;5040549;28;45534;-74
2022/12/10 01:48:06;;;;;;;;;20.25;19.25;;;;;8.40;68.67;99602.31;5039709;28;46019;-81
2022/12/10 01:50:31;;;;;;;;;16.25;13.75;;;;;8.42;68.90;99608.47;5037494;28;46115;-82
2022/12/10 01:52:57;;;;;;;;;20.75;15.75;;;;;8.43;68.09;99613.66;5038916;28;45417;-85
2022/12/10 01:55:41;;;;;;;;;13.25;12.50;;;;;8.34;68.30;99613.44;5040777;28;45465;-77
2022/12/10 01:58:07;;;;;;;;;18.25;15.50;;;;;8.29;68.04;99628.91;5038563;28;46217;-85
2022/12/10 02:00:38;;;;;;;;;17.50;15.50;;;;;8.26;67.85;99633.19;5041147;28;45518;-80
2022/12/10 02:03:20;;;;;;;;;20.00;18.75;;;;;8.19;68.36;99634.75;5043178;28;45490;-84
2022/12/10 02:05:57;;;;;;;;;19.00;14.00;;;;;8.17;68.19;99642.50;5038965;28;45481;-85
2022/12/10 02:08:52;;;;;;;;;17.50;14.25;;;;;8.08;68.28;99652.69;5040205;28;46231;-82
2022/12/10 02:11:29;;;;;;;;;18.25;16.00;;;;;7.92;68.49;99630.63;5037776;28;45298;-83
2022/12/10 02:14:23;;;;;;;;;13.25;13.25;;;;;7.96;68.83;99652.38;5042784;28;45771;-78
2022/12/10 02:16:59;;;;;;;;;22.00;17.00;;;;;7.98;68.49;99658.50;5039871;28;46177;-84
2022/12/10 02:20:03;;;;;;;;;21.50;19.00;;;;;7.95;68.51;99659.28;5039391;28;46105;-84
2022/12/10 02:22:34;;;;;;;;;16.50;14.00;;;;;7.90;69.69;99658.31;5019997;28;45505;-84
2022/12/10 02:25:02;;;;;;;;;19.00;17.00;;;;;7.91;69.88;99661.78;5040746;28;46352;-77
2022/12/10 02:27:42;;;;;;;;;17.75;15.25;;;;;7.90;69.01;99662.63;5039810;28;45546;-84
2022/12/10 02:30:08;;;;;;;;;20.50;17.50;;;;;7.84;69.31;99673.75;5040801;28;45491;-84
2022/12/10 02:32:38;;;;;;;;;18.00;17.00;;;;;7.62;69.13;99653.19;5040522;28;45473;-84
2022/12/10 02:35:09;;;;;;;;;18.25;15.50;;;;;7.73;69.53;99681.25;5040923;28;45555;-67
2022/12/10 02:37:42;;;;;;;;;24.50;19.00;;;;;7.73;69.61;99681.25;5041254;28;45384;-72
2022/12/10 02:40:15;;;;;;;;;22.00;17.00;;;;;7.72;70.12;99684.69;5040469;28;45403;-68
2022/12/10 02:42:43;;;;;;;;;16.50;16.50;;;;;7.71;70.09;99679.44;5043681;28;45451;-70
2022/12/10 02:45:10;;;;;;;;;19.00;18.00;;;;;7.72;69.52;99689.03;5039059;28;45380;-68
2022/12/10 02:47:38;;;;;;;;;20.00;17.25;;;;;7.60;69.77;99692.16;5053293;28;45311;-68
2022/12/10 02:50:06;;;;;;;;;17.75;14.75;;;;;7.57;70.29;99707.66;5054246;28;45944;-84
2022/12/10 02:52:31;;;;;;;;;18.00;17.00;;;;;7.53;70.53;99705.81;5054022;28;45677;-82
2022/12/10 02:54:57;;;;;;;;;20.50;16.50;;;;;7.46;70.98;99715.16;5054891;28;45401;-74
2022/12/10 02:57:43;;;;;;;;;18.75;15.25;;;;;7.41;71.59;99718.44;5052073;28;45538;-82
2022/12/10 03:00:19;;;;;;;;;21.75;18.25;;;;;7.44;71.74;99718.53;5054612;28;46198;-85
2022/12/10 03:02:53;;;;;;;;;18.25;15.75;;;;;7.46;71.55;99730.75;5054637;28;45411;-84
2022/12/10 03:05:26;;;;;;;;;18.25;17.50;;;;;7.48;71.48;99730.75;5054963;28;45506;-82
2022/12/10 03:08:08;;;;;;;;;18.25;17.00;;;;;7.47;71.50;99732.50;5052984;28;45352;-68
2022/12/10 03:10:55;;;;;;;;;22.25;18.50;;;;;7.44;71.23;99740.22;5052057;28;45954;-84
2022/12/10 03:13:37;;;;;;;;;24.50;17.25;;;;;7.36;71.73;99736.47;5053940;28;45873;-80
2022/12/10 03:16:04;;;;;;;;;21.75;18.25;;;;;7.32;71.81;99747.63;5053831;28;45506;-83
2022/12/10 03:18:34;;;;;;;;;17.50;16.50;;;;;7.27;71.95;99747.50;5056261;28;45540;-75
2022/12/10 03:21:04;;;;;;;;;20.75;20.25;;;;;7.13;71.92;99753.97;5058041;28;45531;-84
2022/12/10 03:23:33;;;;;;;;;19.50;19.50;;;;;7.13;71.82;99748.78;5054338;28;45452;-80
2022/12/10 03:25:59;;;;;;;;;21.50;18.75;;;;;7.12;70.97;99758.31;5057775;28;45607;-85
2022/12/10 03:28:26;;;;;;;;;26.25;17.50;;;;;7.05;70.92;99758.94;5058043;28;45544;-84
2022/12/10 03:30:55;;;;;;;;;20.75;19.75;;;;;6.88;70.27;99739.34;5057528;28;46194;-84
2022/12/10 03:33:20;;;;;;;;;19.75;16.75;;;;;6.98;70.70;99767.34;5059092;28;45792;-68
2022/12/10 03:35:47;;;;;;;;;20.50;16.50;;;;;6.73;69.97;99738.03;5057136;28;45478;-83
2022/12/10 03:38:14;;;;;;;;;16.00;14.25;;;;;6.90;69.72;99779.22;5056557;28;45974;-83
2022/12/10 03:40:39;;;;;;;;;19.25;14.25;;;;;6.69;67.99;99756.06;5055608;28;46181;-80
2022/12/10 03:43:05;;;;;;;;;19.25;13.50;;;;;6.72;66.79;99782.97;5055013;28;45382;-84
2022/12/10 03:45:31;;;;;;;;;11.00;10.25;;;;;6.58;66.46;99784.22;5057491;28;45320;-75
2022/12/10 03:47:56;;;;;;;;;10.75;9.50;;;;;6.42;65.95;99782.81;5054767;28;45462;-78
2022/12/10 03:50:22;;;;;;;;;16.00;12.00;;;;;6.26;64.25;99775.34;5053761;28;45499;-84
2022/12/10 03:52:47;;;;;;;;;10.50;9.50;;;;;6.12;65.09;99786.09;5053395;28;45387;-85
2022/12/10 03:55:13;;;;;;;;;8.50;7.75;;;;;5.96;65.26;99796.75;5056260;28;45473;-83
2022/12/10 03:57:38;;;;;;;;;11.25;10.50;;;;;5.88;65.23;99800.75;5057100;28;45509;-84
2022/12/10 04:00:06;;;;;;;;;11.00;10.50;;;;;5.43;65.55;99759.34;5056707;28;46153;-84
2022/12/10 04:02:31;;;;;;;;;14.00;11.25;;;;;5.64;66.25;99814.56;5056262;28;45474;-82
2022/12/10 04:04:57;;;;;;;;;12.75;9.00;;;;;5.55;64.85;99811.59;5057292;28;45419;-70
2022/12/10 04:07:22;;;;;;;;;12.00;10.75;;;;;5.47;65.47;99818.22;5057562;28;45646;-80
2022/12/10 04:09:48;;;;;;;;;8.25;8.25;;;;;5.43;65.32;99817.22;5059736;28;45600;-83
2022/12/10 04:12:14;;;;;;;;;11.25;10.00;;;;;5.33;64.88;99823.75;5057254;28;45450;-83
2022/12/10 04:17:24;;;;;;;;;9.00;7.00;;;;;4.75;61.56;99787.75;5056886;28;45579;-83
2022/12/10 04:19:49;;;;;;;;;5.00;3.50;;;;;4.87;60.98;99828.78;5057234;28;45489;-83
2022/12/10 04:27:43;;;;;;;;;9.00;5.00;;;;;4.52;59.59;99833.38;5056018;28;45499;-81
2022/12/10 04:30:11;;;;;;;;;9.50;5.00;;;;;4.39;59.82;99843.16;5055596;28;46144;-84
2022/12/10 04:32:37;;;;;;;;;8.50;5.25;;;;;4.30;59.74;99852.25;5056852;28;46440;-84
2022/12/10 04:35:03;;;;;;;;;8.50;5.75;;;;;4.24;59.90;99857.13;5057122;28;45497;-74
2022/12/10 04:37:29;;;;;;;;;6.50;5.50;;;;;3.99;60.48;99845.72;5055766;28;45502;-83
2022/12/10 04:39:54;;;;;;;;;6.75;6.00;;;;;3.99;61.30;99863.78;5056758;28;45362;-74
2022/12/10 04:42:21;;;;;;;;;9.25;6.00;;;;;3.98;61.93;99878.44;5057039;28;45783;-80
2022/12/10 04:44:46;;;;;;;;;5.50;5.25;;;;;3.96;62.35;99874.00;5057553;28;45600;-70
2022/12/10 04:47:13;;;;;;;;;6.50;5.25;;;;;3.87;62.91;99871.88;5056530;28;45476;-83
2022/12/10 04:49:39;;;;;;;;;10.00;6.75;;;;;3.78;62.60;99877.50;5056592;28;46165;-73
2022/12/10 04:52:06;;;;;;;;;9.00;6.50;;;;;3.75;62.63;99879.94;5057688;28;45418;-84
2022/12/10 04:54:32;;;;;;;;;7.75;6.00;;;;;3.69;64.05;99877.06;5051183;28;45435;-80
2022/12/10 04:56:58;;;;;;;;;6.00;5.25;;;;;3.67;62.77;99885.56;5056778;28;45512;-84
2022/12/10 04:59:23;;;;;;;;;8.50;7.00;;;;;3.68;62.01;99883.06;5053445;28;46091;-73
2022/12/10 05:01:49;;;;;;;;;9.00;7.75;;;;;3.60;62.31;99886.97;5056910;28;45367;-67
2022/12/10 05:04:17;;;;;;;;;7.75;7.25;;;;;3.55;62.43;99885.88;5055622;28;45463;-84
2022/12/10 05:06:43;;;;;;;;;9.00;8.75;;;;;3.37;62.77;99876.44;5056341;28;45583;-74
2022/12/10 05:09:11;;;;;;;;;7.00;6.00;;;;;3.27;62.97;99861.34;5055231;28;45575;-84
2022/12/10 05:11:36;;;;;;;;;5.25;5.25;;;;;3.42;61.90;99892.16;5055314;28;45611;-84
2022/12/10 05:14:02;;;;;;;;;9.00;5.00;;;;;3.45;61.21;99888.84;5054953;28;45374;-83
2022/12/10 05:16:30;;;;;;;;;7.00;5.75;;;;;3.22;61.03;99870.53;5053306;28;45414;-82
2022/12/10 05:18:56;;;;;;;;;6.00;4.75;;;;;3.29;61.22;99902.72;5053349;28;45850;-83
2022/12/10 05:21:24;;;;;;;;;6.00;5.00;;;;;3.21;60.92;99902.34;5055165;28;45409;-81
2022/12/10 05:23:51;;;;;;;;;1.75;1.50;;;;;3.04;60.04;99875.69;5050786;28;45469;-84
2022/12/10 05:26:20;;;;;;;;;4.75;4.50;;;;;3.20;59.58;99900.56;5056681;28;45472;-83
2022/12/10 05:28:54;;;;;;;;;5.75;5.00;;;;;3.08;60.52;99895.66;5055432;28;46678;-83
2022/12/10 05:31:29;;;;;;;;;5.50;4.25;;;;;3.10;59.63;99914.69;5055454;28;45471;-84
2022/12/10 05:33:55;;;;;;;;;5.75;4.25;;;;;3.01;59.39;99908.22;5051442;28;45504;-84
2022/12/10 05:36:24;;;;;;;;;6.00;5.00;;;;;2.93;59.93;99911.28;5052495;28;45468;-68
2022/12/10 05:38:50;;;;;;;;;6.50;5.00;;;;;2.94;61.67;99920.78;5053314;28;45473;-83
2022/12/10 05:41:24;;;;;;;;;5.50;4.50;;;;;2.91;62.16;99928.38;5053529;28;45546;-82
2022/12/10 05:43:52;;;;;;;;;6.50;5.50;;;;;2.65;63.11;99888.38;5051436;28;45382;-84
2022/12/10 05:46:22;;;;;;;;;9.50;8.00;;;;;2.89;64.36;99935.16;5073093;28;45393;-77
2022/12/10 05:48:48;;;;;;;;;7.00;5.50;;;;;2.87;64.54;99936.78;5056456;28;46437;-81
2022/12/10 05:51:17;;;;;;;;;6.50;5.00;;;;;2.86;65.21;99934.13;5045676;28;45401;-77
2022/12/10 05:53:43;;;;;;;;;9.50;5.75;;;;;2.85;65.51;99942.69;5051503;28;45350;-84
2022/12/10 05:56:12;;;;;;;;;7.00;6.50;;;;;2.78;67.06;99937.19;5056340;28;45596;-83
2022/12/10 05:58:39;;;;;;;;;6.00;5.75;;;;;2.82;67.64;99950.25;5056224;28;46228;-77
2022/12/10 06:01:16;;;;;;;;;7.50;7.00;;;;;2.80;70.02;99955.31;5048533;28;45625;-83
2022/12/10 06:03:42;;;;;;;;;6.00;6.00;;;;;2.80;69.62;99957.91;5053011;28;45341;-74
2022/12/10 06:06:09;;;;;;;;;6.50;6.00;;;;;2.77;70.00;99965.50;5056360;28;45429;-82
2022/12/10 06:08:36;;;;;;;;;12.25;12.00;;;;;2.78;69.32;99967.25;5056206;28;46203;-82
2022/12/10 06:11:10;;;;;;;;;12.00;11.00;;;;;2.77;70.12;99968.06;5056172;28;45429;-82
2022/12/10 06:13:37;;;;;;;;;11.75;10.50;;;;;2.59;70.57;99945.69;5056081;28;45320;-83
2022/12/10 06:16:10;;;;;;;;;12.75;10.25;;;;;2.73;71.19;99973.88;5056309;28;45446;-68
2022/12/10 06:18:36;;;;;;;;;7.00;6.00;;;;;2.73;70.62;99976.47;5055476;28;46271;-78
2022/12/10 06:21:10;;;;;;;;;18.75;16.00;;;;;2.70;71.89;99978.88;5049346;28;47083;-81
2022/12/10 06:23:37;;;;;;;;;44.75;38.00;;;;;2.67;72.33;99979.59;5044456;28;45358;-78
2022/12/10 06:26:05;;;;;;;;;24.00;15.00;;;;;2.64;71.94;99976.84;5052420;28;45233;-68
2022/12/10 06:28:30;;;;;;;;;17.25;15.00;;;;;2.55;71.97;99978.97;5036412;28;46186;-81
2022/12/10 06:30:58;;;;;;;;;14.50;12.25;;;;;2.58;71.32;99989.44;5044142;28;45384;-80
2022/12/10 06:33:24;;;;;;;;;12.00;11.25;;;;;2.49;72.28;99997.56;5044283;28;45472;-80
2022/12/10 06:35:49;;;;;;;;;13.75;11.00;;;;;2.48;72.55;99998.34;5049627;28;45243;-67
2022/12/10 06:38:15;;;;;;;;;13.75;11.50;;;;;2.46;71.85;99999.97;5044598;28;46251;-69
2022/12/10 06:40:40;;;;;;;;;18.75;16.75;;;;;2.33;71.54;99979.53;5047229;28;45522;-68
2022/12/10 06:43:06;;;;;;;;;17.25;14.50;;;;;2.42;72.77;100008.34;5047992;28;45381;-68
2022/12/10 06:45:32;;;;;;;;;14.50;11.25;;;;;2.40;72.20;100007.38;5040245;28;45475;-69
2022/12/10 06:47:57;;;;;;;;;11.25;11.00;;;;;2.31;72.81;100004.31;5054490;28;47176;-68
2022/12/10 06:50:23;;;;;;;;;12.00;10.75;;;;;2.28;73.05;100011.88;5055140;28;45449;-84
2022/12/10 06:52:50;;;;;;;;;7.75;7.00;;;;;2.14;72.81;100022.31;5056305;28;45701;-69
2022/12/10 06:55:16;;;;;;;;;8.00;6.25;;;;;2.03;73.92;100023.44;5046761;28;45515;-84
2022/12/10 06:57:41;;;;;;;;;11.50;9.00;;;;;2.00;73.60;100015.50;5058545;28;46056;-84
2022/12/10 07:00:07;;;;;;;;;11.25;8.50;;;;;1.99;73.07;100026.63;5059457;28;45516;-85
2022/12/10 07:02:33;;;;;;;;;7.75;7.75;;;;;2.00;72.66;100028.41;5059472;28;45453;-83
2022/12/10 07:04:59;;;;;;;;;8.25;7.00;;;;;2.00;73.11;100033.53;5058511;28;45293;-84
2022/12/10 07:07:24;;;;;;;;;14.25;11.25;;;;;2.02;72.82;100047.41;5040197;28;45921;-67
2022/12/10 07:09:50;;;;;;;;;18.00;16.50;;;;;2.01;73.55;100045.66;5046539;28;45550;-69
2022/12/10 07:12:15;;;;;;;;;22.25;18.75;;;;;1.87;73.82;100032.00;5054872;28;45390;-71
2022/12/10 07:14:41;;;;;;;;;25.25;20.00;;;;;2.01;73.73;100050.78;5059229;28;45238;-71
2022/12/10 07:17:07;;;;;;;;;25.25;23.75;;;;;2.01;72.79;100053.38;5058960;28;45585;-68
2022/12/10 07:19:32;;;;;;;;;15.00;14.75;;;;;1.95;73.01;100043.59;5058951;28;45230;-68
2022/12/10 07:21:58;;;;;;;;;29.50;22.50;;;;;1.94;73.10;100051.25;5058914;28;45237;-84
2022/12/10 07:24:24;;;;;;;;;18.75;15.50;;;;;1.92;72.99;100047.69;5059222;28;45475;-74
2022/12/10 07:26:50;;;;;;;;;15.50;11.75;;;;;1.88;73.28;100059.50;5058825;28;46095;-80
2022/12/10 07:29:19;;;;;;;;;15.00;14.75;;;;;1.53;73.59;100003.41;5058303;28;45480;-85
2022/12/10 07:31:44;;;;;;;;;11.75;11.25;;;;;1.77;74.01;100052.84;5058822;28;45264;-73
2022/12/10 07:34:11;;;;;;;;;21.00;16.50;;;;;1.83;73.86;100066.09;5058548;28;45607;-82
2022/12/10 07:36:37;;;;;;;;;17.50;15.00;;;;;1.85;73.78;100067.06;5058815;28;46385;-75
2022/12/10 07:39:06;;;;;;;;;26.75;23.75;;;;;1.67;73.91;100046.31;5056787;28;45631;-83
2022/12/10 07:41:37;;;;;;;;;16.25;15.00;;;;;1.64;73.67;100051.28;5058824;28;45541;-83
2022/12/10 07:44:13;;;;;;;;;22.50;17.50;;;;;1.83;73.39;100093.53;5058026;28;45475;-78
2022/12/10 07:46:45;;;;;;;;;24.00;23.25;;;;;1.83;73.13;100088.38;5052007;28;46237;-83
2022/12/10 07:49:14;;;;;;;;;101.00;80.00;;;;;1.84;73.06;100087.59;5056422;28;45323;-83
2022/12/10 07:51:46;;;;;;;;;55.25;41.50;;;;;1.78;72.60;100081.25;5055195;28;45307;-83
2022/12/10 07:54:18;;;;;;;;;62.00;49.75;;;;;1.59;72.08;100058.75;5058790;28;45449;-83
2022/12/10 07:56:53;;;;;;;;;15.75;15.25;;;;;1.69;72.63;100095.28;5059463;28;45387;-72
2022/12/10 07:59:27;;;;;;;;;12.25;12.00;;;;;1.72;73.37;100093.78;5057198;28;45306;-67
2022/12/10 08:01:53;;;;;;;;;16.25;15.50;;;;;1.78;73.42;100109.59;5059294;28;45509;-74
2022/12/10 08:04:18;;;;;;;;;15.75;14.50;;;;;1.81;73.61;100108.00;5060284;28;46039;-69
2022/12/10 08:06:44;;;;;;;;;18.00;15.50;;;;;1.81;73.40;100110.56;5077524;28;45397;-72
2022/12/10 08:09:10;;;;;;;;;13.75;10.25;;;;;1.72;73.63;100123.81;5068074;28;45319;-75
2022/12/10 08:11:36;;;;;;;;;15.00;11.00;;;;;1.70;73.22;100120.25;5057898;28;45552;-73
2022/12/10 08:14:01;;;;;;;;;16.00;14.00;;;;;1.70;73.07;100115.13;5056153;28;45632;-74
2022/12/10 08:16:30;;;;;;;;;14.25;11.00;;;;;1.70;72.98;100120.25;5058689;28;45374;-74
2022/12/10 08:18:58;;;;;;;;;11.75;11.00;;;;;1.67;73.64;100117.50;5056022;28;45441;-72
2022/12/10 08:21:26;;;;;;;;;15.25;14.00;;;;;1.64;74.25;100127.63;5057382;28;45229;-73
2022/12/10 08:23:53;;;;;;;;;16.00;16.00;;;;;1.71;73.96;100133.22;5056490;28;45629;-71
2022/12/10 08:26:21;;;;;;;;;19.00;14.50;;;;;1.58;73.44;100099.84;5056362;28;46446;-72
2022/12/10 08:28:48;;;;;;;;;5.25;5.00;;;;;1.62;70.82;100109.50;5051824;28;45684;-71
2022/12/10 08:31:15;;;;;;;;;8.50;7.75;;;;;1.78;71.55;100129.31;5047515;28;45363;-73
2022/12/10 08:33:42;;;;;;;;;12.75;12.75;;;;;1.84;71.59;100132.25;5045806;28;45448;-72
2022/12/10 08:36:10;;;;;;;;;10.75;8.50;;;;;1.91;71.54;100123.19;5050601;28;45367;-67
2022/12/10 08:38:36;;;;;;;;;9.00;9.00;;;;;2.00;71.41;100126.28;5045297;28;45490;-70
2022/12/10 08:41:09;;;;;;;;;9.00;8.75;;;;;2.12;71.61;100132.13;5049686;28;45516;-71
2022/12/10 08:43:35;;;;;;;;;24.50;19.00;;;;;2.21;71.90;100128.31;5051217;28;45433;-73
2022/12/10 08:46:00;;;;;;;;;39.00;32.50;;;;;2.30;71.60;100132.28;5051982;28;45519;-73
2022/12/10 08:48:26;;;;;;;;;64.25;50.75;;;;;2.39;72.42;100129.34;5049984;28;45439;-72
2022/12/10 08:50:52;;;;;;;;;73.25;57.00;;;;;2.46;72.32;100135.72;5043613;28;45428;-74
2022/12/10 08:53:17;;;;;;;;;68.00;52.25;;;;;2.54;71.71;100140.50;5053163;28;45419;-75
2022/12/10 08:55:43;;;;;;;;;33.25;23.00;;;;;2.62;72.18;100135.78;5044005;28;45661;-74
2022/12/10 08:58:09;;;;;;;;;39.25;34.25;;;;;2.67;71.51;100142.06;5050240;28;45516;-75
2022/12/10 09:00:35;;;;;;;;;31.25;28.00;;;;;2.47;70.42;100097.16;5048522;28;45767;-71
2022/12/10 09:03:01;;;;;;;;;22.25;17.75;;;;;2.76;70.12;100139.09;5047301;28;45552;-75
2022/12/10 09:05:27;;;;;;;;;14.50;12.75;;;;;2.83;70.95;100140.34;5044805;28;45571;-72
2022/12/10 09:07:52;;;;;;;;;12.25;10.50;;;;;2.85;69.24;100137.03;5050669;28;45471;-72
2022/12/10 09:10:18;;;;;;;;;24.75;21.50;;;;;2.79;68.22;100118.66;5048672;28;45550;-76
2022/12/10 09:12:43;;;;;;;;;13.50;9.00;;;;;2.66;68.79;100106.75;5053226;28;45710;-76
2022/12/10 09:15:09;;;;;;;;;8.75;4.50;;;;;2.74;67.75;100140.72;5053602;28;46230;-68
2022/12/10 09:17:38;;;;;;;;;8.50;8.25;;;;;2.96;67.62;100135.94;5047087;28;46056;-74
2022/12/10 09:20:04;;;;;;;;;7.25;5.50;;;;;4.03;64.44;100121.56;5050365;28;45377;-75
2022/12/10 09:22:30;;;;;;;;;8.50;5.75;;;;;4.86;62.71;100073.75;5050816;28;45341;-68
2022/12/10 09:24:56;;;;;;;;;5.50;5.00;;;;;6.03;58.95;100116.78;5046073;28;45414;-75
2022/12/10 09:27:22;;;;;;;;;10.50;7.75;;;;;6.79;55.03;100103.38;5043691;28;45311;-76
2022/12/10 09:29:47;;;;;;;;;8.00;7.00;;;;;7.27;53.13;100106.00;5054992;28;45474;-74
2022/12/10 09:32:13;;;;;;;;;13.75;9.50;;;;;7.90;53.85;100121.22;5041823;28;45481;-72
2022/12/10 09:34:38;;;;;;;;;3.00;2.00;;;;;8.59;52.58;100113.91;5045339;28;45827;-77
2022/12/10 09:37:04;;;;;;;;;8.00;6.25;;;;;9.18;51.03;100120.00;5051829;28;45867;-67
2022/12/10 09:39:29;;;;;;;;;15.25;14.25;;;;;9.68;49.98;100111.81;5049490;28;45530;-74
2022/12/10 09:42:40;;;;;;;;;13.00;12.00;;;;;10.14;49.62;100108.63;5039766;28;45180;-75
2022/12/10 09:45:36;;;;;;;;;11.25;11.25;;;;;10.58;46.70;100101.88;5037609;28;46233;-73
2022/12/10 09:48:10;;;;;;;;;20.50;18.50;;;;;10.83;43.96;100101.56;5041978;28;45461;-80
2022/12/10 09:51:14;;;;;;;;;14.00;14.00;;;;;11.07;44.68;100098.59;5051494;28;45576;-82
2022/12/10 09:53:40;;;;;;;;;12.25;12.00;;;;;11.29;44.01;100088.56;5048431;28;45451;-82
2022/12/10 09:56:19;;;;;;;;;15.50;13.50;;;;;11.54;42.58;100106.50;5045824;28;45422;-76
2022/12/10 09:58:45;;;;;;;;;16.00;14.25;;;;;11.59;43.47;100105.72;5046663;28;45816;-79
2022/12/10 10:01:15;;;;;;;;;11.00;10.00;;;;;11.58;44.61;100102.22;5045453;28;45389;-77
2022/12/10 10:03:42;;;;;;;;;15.75;12.50;;;;;11.57;42.64;100096.94;5056067;28;45430;-80
2022/12/10 10:06:13;;;;;;;;;9.67;8.00;;;;;11.46;44.48;100089.78;5047034;28;46108;-77
2022/12/10 10:08:51;;;;;;;;;6.00;5.00;;;;;11.52;42.08;100100.38;5053352;28;45446;-72
2022/12/10 10:11:27;;;;;;;;;10.50;8.75;;;;;11.57;43.06;100105.69;5045538;28;46388;-76
2022/12/10 10:13:58;;;;;;;;;8.25;8.00;;;;;11.70;41.76;100119.88;5044600;28;45168;-77
2022/12/10 10:16:30;;;;;;;;;4.67;4.33;;;;;11.79;42.44;100116.53;5044086;28;45452;-68
2022/12/10 10:19:01;;;;;;;;;3.00;3.00;;;;;11.69;36.77;100125.94;5046085;28;45449;-67
2022/12/10 10:21:32;;;;;;;;;2.00;2.00;;;;;11.40;37.02;100128.91;5044750;28;45483;-76
2022/12/10 10:23:58;;;;;;;;;7.67;7.00;;;;;11.35;37.27;100128.78;5045079;28;45522;-77
2022/12/10 10:26:28;;;;;;;;;2.33;2.33;;;;;11.29;39.84;100118.22;5047066;28;46285;-76
2022/12/10 10:29:00;;;;;;;;;2.00;2.00;;;;;11.46;37.41;100138.56;5050650;28;45423;-77
2022/12/10 10:31:29;;;;;;;;;2.00;1.00;;;;;11.42;36.61;100134.13;5050261;28;45566;-76
2022/12/10 10:33:58;;;;;;;;;3.00;3.00;;;;;11.40;36.18;100138.47;5049825;28;45492;-71
2022/12/10 10:36:30;;;;;;;;;3.00;3.00;;;;;11.30;38.26;100135.69;5047022;28;45542;-67
2022/12/10 10:38:56;;;;;;;;;1.00;1.00;;;;;11.30;38.00;100135.69;5047899;28;45326;-72
2022/12/10 10:41:24;;;;;;;;;1.33;1.00;;;;;11.04;37.89;100103.78;5044816;28;45433;-77
2022/12/10 10:44:00;;;;;;;;;3.00;3.00;;;;;11.37;38.59;100128.81;5044751;28;45495;-75
2022/12/10 10:46:26;;;;;;;;;3.00;2.67;;;;;11.09;36.66;100075.09;5044423;28;45993;-75
2022/12/10 10:49:13;;;;;;;;;1.00;0.00;;;;;11.37;37.82;100125.34;5047273;28;45433;-73
2022/12/10 10:51:44;;;;;;;;;1.33;1.33;;;;;11.32;36.16;100115.66;5056317;28;45487;-75
2022/12/10 10:54:11;;;;;;;;;2.67;2.00;;;;;11.24;38.18;100109.41;5046446;28;45393;-75
2022/12/10 10:56:43;;;;;;;;;2.33;1.33;;;;;11.06;35.36;100101.16;5053848;28;45379;-71
2022/12/10 10:59:28;;;;;;;;;2.67;1.00;;;;;10.84;36.38;100092.91;5050278;28;45448;-69
2022/12/10 11:02:02;;;;;;;;;4.00;3.00;;;;;10.72;38.08;100108.28;5048754;28;45460;-74
2022/12/10 11:04:45;;;;;;;;;2.75;2.75;;;;;10.71;37.78;100102.19;5044055;28;45473;-74
2022/12/10 11:07:41;;;;;;;;;2.00;2.00;;;;;10.39;37.35;100083.19;5051737;28;46199;-68
2022/12/10 11:10:33;;;;;;;;;3.50;3.50;;;;;10.19;37.68;100108.78;5051465;28;45444;-73
2022/12/10 11:13:10;;;;;;;;;2.00;2.00;;;;;10.16;37.94;100106.06;5050669;28;45528;-74
2022/12/10 11:15:39;;;;;;;;;4.00;4.00;;;;;10.20;38.75;100097.47;5051600;28;45476;-74
2022/12/10 11:18:36;;;;;;;;;3.00;3.00;;;;;10.32;38.60;100112.59;5052557;28;45468;-73
2022/12/10 11:21:13;;;;;;;;;2.00;2.00;;;;;10.23;37.51;100100.19;5050803;28;45347;-72
2022/12/10 11:23:47;;;;;;;;;2.00;2.00;;;;;10.20;37.83;100102.69;5048448;28;45493;-74
2022/12/10 11:26:29;;;;;;;;;2.00;2.00;;;;;10.10;37.18;100088.53;5053520;28;45467;-76
2022/12/10 11:29:05;;;;;;;;;1.00;0.33;;;;;9.92;37.51;100095.91;5049486;28;45645;-79
2022/12/10 11:31:55;;;;;;;;;1.00;1.00;;;;;9.95;37.57;100088.19;5056368;28;45449;-73
2022/12/10 11:34:48;;;;;;;;;2.00;2.00;;;;;9.87;38.33;100090.59;5050254;28;45440;-69
2022/12/10 11:37:32;;;;;;;;;2.50;2.00;;;;;9.96;39.02;100088.19;5054948;28;45484;-73
2022/12/10 11:40:26;;;;;;;;;1.00;0.25;;;;;10.01;38.37;100093.53;5044827;28;46133;-75
2022/12/10 11:43:13;;;;;;;;;1.00;0.67;;;;;10.11;34.75;100087.72;5020500;28;45226;-67
2022/12/10 11:46:07;;;;;;;;;0.00;0.00;;;;;10.21;35.54;100087.94;5044110;28;45378;-75